createdAt,value
2017-09-10T00:00:14.936Z,75.30
2017-09-10T00:02:43.229Z,75.30
2017-09-10T00:05:11.480Z,75.30
2017-09-10T00:07:39.043Z,75.10
2017-09-10T00:10:08.078Z,75.50
2017-09-10T00:12:35.574Z,75.20
2017-09-10T00:15:03.088Z,75.30
2017-09-10T00:17:30.575Z,75.20
2017-09-10T00:19:58.124Z,75.20
2017-09-10T00:22:25.617Z,75.30
2017-09-10T00:24:53.206Z,75.40
2017-09-10T00:27:20.698Z,75.40
2017-09-10T00:29:48.183Z,75.60
2017-09-10T00:32:15.739Z,75.40
2017-09-10T00:34:43.230Z,75.40
2017-09-10T00:37:10.750Z,75.40
2017-09-10T00:39:38.235Z,75.40
2017-09-10T00:42:06.523Z,75.40
2017-09-10T00:44:34.027Z,75.30
2017-09-10T00:47:01.553Z,75.10
2017-09-10T00:49:29.076Z,75.30
2017-09-10T00:51:56.566Z,75.40
2017-09-10T00:54:25.075Z,75.40
2017-09-10T00:56:53.882Z,75.50
2017-09-10T00:59:21.428Z,75.50
2017-09-10T01:01:48.920Z,75.50
2017-09-10T01:04:17.208Z,75.50
2017-09-10T01:06:44.702Z,75.50
2017-09-10T01:09:12.237Z,75.50
2017-09-10T01:11:39.723Z,75.50
2017-09-10T01:14:07.210Z,75.50
2017-09-10T01:16:35.490Z,75.50
2017-09-10T01:19:03.763Z,76.20
2017-09-10T01:21:32.020Z,75.50
2017-09-10T01:23:59.526Z,75.50
2017-09-10T01:26:27.021Z,75.50
2017-09-10T01:28:54.548Z,75.60
2017-09-10T01:31:22.040Z,76.10
2017-09-10T01:33:49.539Z,75.60
2017-09-10T01:36:17.816Z,75.50
2017-09-10T01:38:46.074Z,75.60
2017-09-10T01:41:14.426Z,75.60
2017-09-10T01:43:41.919Z,75.50
2017-09-10T01:46:10.173Z,75.60
2017-09-10T01:48:37.694Z,75.40
2017-09-10T01:51:05.751Z,75.60
2017-09-10T01:53:33.263Z,75.60
2017-09-10T01:56:01.520Z,76.20
2017-09-10T01:58:29.048Z,75.50
2017-09-10T02:00:56.548Z,75.60
2017-09-10T02:03:24.080Z,75.50
2017-09-10T02:05:51.568Z,75.50
2017-09-10T02:08:19.835Z,75.30
2017-09-10T02:10:47.368Z,75.30
2017-09-10T02:13:14.864Z,75.30
2017-09-10T02:15:42.385Z,75.40
2017-09-10T02:18:10.687Z,75.40
2017-09-10T02:20:38.262Z,75.90
2017-09-10T02:23:06.524Z,75.30
2017-09-10T02:25:34.042Z,75.20
2017-09-10T02:28:01.573Z,75.30
2017-09-10T02:30:29.056Z,75.20
2017-09-10T02:32:56.544Z,75.20
2017-09-10T02:35:24.077Z,75.20
2017-09-10T02:37:51.576Z,75.20
2017-09-10T02:40:19.075Z,75.20
2017-09-10T02:42:46.595Z,75.00
2017-09-10T02:45:14.092Z,75.00
2017-09-10T02:47:41.620Z,75.00
2017-09-10T02:50:09.114Z,75.00
2017-09-10T02:52:36.603Z,75.10
2017-09-10T02:55:04.115Z,75.20
2017-09-10T02:57:31.608Z,75.00
2017-09-10T02:59:59.123Z,75.00
2017-09-10T03:02:26.638Z,75.00
2017-09-10T03:04:54.127Z,75.00
2017-09-10T03:07:21.660Z,75.10
2017-09-10T03:09:49.973Z,75.00
2017-09-10T03:12:17.484Z,75.00
2017-09-10T03:14:45.793Z,74.90
2017-09-10T03:17:13.289Z,74.90
2017-09-10T03:19:40.784Z,75.00
2017-09-10T03:22:09.076Z,74.90
2017-09-10T03:24:36.568Z,74.90
2017-09-10T03:27:04.109Z,74.90
2017-09-10T03:29:31.601Z,74.90
2017-09-10T03:31:59.098Z,74.80
2017-09-10T03:34:26.623Z,74.80
2017-09-10T03:36:54.112Z,74.90
2017-09-10T03:39:21.641Z,74.90
2017-09-10T03:41:49.135Z,74.90
2017-09-10T03:44:16.673Z,74.90
2017-09-10T03:46:44.173Z,74.70
2017-09-10T03:49:11.671Z,74.70
2017-09-10T03:51:39.968Z,74.60
2017-09-10T03:54:07.470Z,74.60
2017-09-10T03:56:34.965Z,74.70
2017-09-10T03:59:03.264Z,74.70
2017-09-10T04:01:30.784Z,74.70
2017-09-10T04:03:59.050Z,74.60
2017-09-10T04:06:26.576Z,74.60
2017-09-10T04:08:54.117Z,74.50
2017-09-10T04:11:21.615Z,74.60
2017-09-10T04:13:49.108Z,74.60
2017-09-10T04:16:17.394Z,74.70
2017-09-10T04:18:44.889Z,74.70
2017-09-10T04:21:12.421Z,74.70
2017-09-10T04:23:39.920Z,74.60
2017-09-10T04:26:07.466Z,74.60
2017-09-10T04:28:34.965Z,74.70
2017-09-10T04:31:02.468Z,74.70
2017-09-10T04:33:30.008Z,74.70
2017-09-10T04:35:57.524Z,74.70
2017-09-10T04:38:25.785Z,74.60
2017-09-10T04:40:53.708Z,74.60
2017-09-10T04:43:21.204Z,75.20
2017-09-10T04:45:48.709Z,74.70
2017-09-10T04:48:16.204Z,74.70
2017-09-10T04:50:43.741Z,74.70
2017-09-10T04:53:11.242Z,74.80
2017-09-10T04:55:38.737Z,74.80
2017-09-10T04:58:06.268Z,75.40
2017-09-10T05:00:34.526Z,74.80
2017-09-10T05:03:02.050Z,74.80
2017-09-10T05:05:29.576Z,74.80
2017-09-10T05:07:57.130Z,74.80
2017-09-10T05:10:25.401Z,74.90
2017-09-10T05:12:52.904Z,74.70
2017-09-10T05:15:20.436Z,74.80
2017-09-10T05:17:47.940Z,74.70
2017-09-10T05:20:15.428Z,74.70
2017-09-10T05:22:42.964Z,74.70
2017-09-10T05:25:11.257Z,74.70
2017-09-10T05:27:39.520Z,74.60
2017-09-10T05:30:07.816Z,74.70
2017-09-10T05:32:35.348Z,74.60
2017-09-10T05:35:02.845Z,74.70
2017-09-10T05:37:30.341Z,74.80
2017-09-10T05:39:57.884Z,74.70
2017-09-10T05:42:25.384Z,74.70
2017-09-10T05:44:53.666Z,74.60
2017-09-10T05:47:21.958Z,74.60
2017-09-10T05:49:49.448Z,74.60
2017-09-10T05:52:16.980Z,74.60
2017-09-10T05:54:44.480Z,74.50
2017-09-10T05:57:11.973Z,74.50
2017-09-10T05:59:39.505Z,74.40
2017-09-10T06:02:07.007Z,74.40
2017-09-10T06:04:34.507Z,74.50
2017-09-10T06:07:02.049Z,74.50
2017-09-10T06:09:29.540Z,74.50
2017-09-10T06:11:57.824Z,74.50
2017-09-10T06:14:26.085Z,74.40
2017-09-10T06:16:53.633Z,74.50
2017-09-10T06:19:21.155Z,74.40
2017-09-10T06:21:48.669Z,74.30
2017-09-10T06:24:16.260Z,74.40
2017-09-10T06:26:43.753Z,74.40
2017-09-10T06:29:11.253Z,74.60
2017-09-10T06:31:38.792Z,74.60
2017-09-10T06:34:06.289Z,74.60
2017-09-10T06:36:33.790Z,74.60
2017-09-10T06:39:01.327Z,74.50
2017-09-10T06:41:28.825Z,74.50
2017-09-10T06:43:56.361Z,75.20
2017-09-10T06:46:23.852Z,74.50
2017-09-10T06:48:51.345Z,74.50
2017-09-10T06:51:18.868Z,74.50
2017-09-10T06:53:46.397Z,74.60
2017-09-10T06:56:13.893Z,74.60
2017-09-10T06:58:42.188Z,74.40
2017-09-10T07:01:09.684Z,74.30
2017-09-10T07:03:37.205Z,74.40
2017-09-10T07:06:04.703Z,74.40
2017-09-10T07:08:32.227Z,74.30
2017-09-10T07:10:59.752Z,74.80
2017-09-10T07:13:28.025Z,74.10
2017-09-10T07:15:56.324Z,74.20
2017-09-10T07:18:23.855Z,74.00
2017-09-10T07:20:51.346Z,74.10
2017-09-10T07:23:18.884Z,74.10
2017-09-10T07:25:46.376Z,74.10
2017-09-10T07:28:13.865Z,74.10
2017-09-10T07:30:41.400Z,74.10
2017-09-10T07:33:08.896Z,74.00
2017-09-10T07:35:37.161Z,74.00
2017-09-10T07:38:04.697Z,73.90
2017-09-10T07:40:32.208Z,74.00
2017-09-10T07:42:59.744Z,74.00
2017-09-10T07:45:27.255Z,74.10
2017-09-10T07:47:54.759Z,73.90
2017-09-10T07:50:23.049Z,73.50
2017-09-10T07:52:50.628Z,73.50
2017-09-10T07:55:18.339Z,73.70
2017-09-10T07:57:45.870Z,73.40
2017-09-10T08:00:14.156Z,73.10
2017-09-10T08:02:41.665Z,73.10
2017-09-10T08:05:09.197Z,73.30
2017-09-10T08:07:36.743Z,73.50
2017-09-10T08:10:04.251Z,73.50
2017-09-10T08:12:31.795Z,73.40
2017-09-10T08:14:59.301Z,73.30
2017-09-10T08:17:26.804Z,73.40
2017-09-10T08:19:54.325Z,73.30
2017-09-10T08:22:21.840Z,72.80
2017-09-10T08:24:49.352Z,72.90
2017-09-10T08:27:16.881Z,72.90
2017-09-10T08:29:44.382Z,72.70
2017-09-10T08:32:11.913Z,72.60
2017-09-10T08:34:39.462Z,72.90
2017-09-10T08:37:07.193Z,72.90
2017-09-10T08:39:34.770Z,72.60
2017-09-10T08:42:02.401Z,72.40
2017-09-10T08:44:30.278Z,72.40
2017-09-10T08:46:58.684Z,72.00
2017-09-10T08:49:26.427Z,72.10
2017-09-10T08:51:54.064Z,72.00
2017-09-10T08:54:21.632Z,71.30
2017-09-10T08:56:49.299Z,71.60
2017-09-10T08:59:16.852Z,71.80
2017-09-10T09:01:44.377Z,71.80
2017-09-10T09:04:11.909Z,71.70
2017-09-10T09:06:40.195Z,71.50
2017-09-10T09:09:08.488Z,71.80
2017-09-10T09:11:36.026Z,71.80
2017-09-10T09:14:04.302Z,71.40
2017-09-10T09:16:31.830Z,71.40
2017-09-10T09:18:59.332Z,71.40
2017-09-10T09:21:26.833Z,71.40
2017-09-10T09:23:54.376Z,71.00
2017-09-10T09:26:21.877Z,70.80
2017-09-10T09:28:49.389Z,71.10
2017-09-10T09:31:16.970Z,71.00
2017-09-10T09:33:44.481Z,70.30
2017-09-10T09:36:12.043Z,70.40
2017-09-10T09:38:39.565Z,70.30
2017-09-10T09:41:07.067Z,70.20
2017-09-10T09:43:34.592Z,70.30
2017-09-10T09:46:02.888Z,70.50
2017-09-10T09:48:30.398Z,70.50
2017-09-10T09:50:57.933Z,70.70
2017-09-10T09:53:25.432Z,69.30
2017-09-10T09:55:53.701Z,68.80
2017-09-10T09:58:22.311Z,68.80
2017-09-10T10:00:49.816Z,67.80
2017-09-10T10:03:18.125Z,68.40
2017-09-10T10:05:45.618Z,68.60
2017-09-10T10:08:13.121Z,67.80
2017-09-10T10:10:40.660Z,68.40
2017-09-10T10:13:08.158Z,68.70
2017-09-10T10:15:36.420Z,68.30
2017-09-10T10:18:03.956Z,68.30
2017-09-10T10:20:31.454Z,68.10
2017-09-10T10:22:58.984Z,67.80
2017-09-10T10:25:26.584Z,66.90
2017-09-10T10:27:54.110Z,65.70
2017-09-10T10:30:22.877Z,66.40
2017-09-10T10:32:50.408Z,67.00
2017-09-10T10:35:17.933Z,65.20
2017-09-10T10:37:45.437Z,66.30
2017-09-10T10:40:12.990Z,64.90
2017-09-10T10:42:40.493Z,64.80
2017-09-10T10:45:08.757Z,65.20
2017-09-10T10:47:37.061Z,65.10
2017-09-10T10:50:04.570Z,65.10
2017-09-10T10:52:32.098Z,65.80
2017-09-10T10:54:59.602Z,65.20
2017-09-10T10:57:27.900Z,63.90
2017-09-10T10:59:55.441Z,63.80
2017-09-10T11:02:22.980Z,64.60
2017-09-10T11:04:50.486Z,65.00
2017-09-10T11:07:17.981Z,65.20
2017-09-10T11:09:45.514Z,65.80
2017-09-10T11:12:13.022Z,64.90
2017-09-10T11:14:41.390Z,65.10
2017-09-10T11:17:08.905Z,65.00
2017-09-10T11:19:36.401Z,64.30
2017-09-10T11:22:03.940Z,64.70
2017-09-10T11:24:31.449Z,64.60
2017-09-10T11:26:58.980Z,64.70
2017-09-10T11:29:26.490Z,64.70
2017-09-10T11:31:54.022Z,64.80
2017-09-10T11:34:21.521Z,64.80
2017-09-10T11:36:49.036Z,63.70
2017-09-10T11:39:16.583Z,61.90
2017-09-10T11:41:44.115Z,62.30
2017-09-10T11:44:11.622Z,61.20
2017-09-10T11:46:39.165Z,62.40
2017-09-10T11:49:06.662Z,62.40
2017-09-10T11:51:34.173Z,62.90
2017-09-10T11:54:01.725Z,60.60
2017-09-10T11:56:29.265Z,61.10
2017-09-10T11:58:57.581Z,62.10
2017-09-10T12:01:25.088Z,61.90
2017-09-10T12:03:52.619Z,62.00
2017-09-10T12:06:20.141Z,62.40
2017-09-10T12:08:47.727Z,62.20
2017-09-10T12:11:15.232Z,62.00
2017-09-10T12:13:42.762Z,62.00
2017-09-10T12:16:10.264Z,61.60
2017-09-10T12:18:37.790Z,60.50
2017-09-10T12:21:05.284Z,61.20
2017-09-10T12:23:32.821Z,61.60
2017-09-10T12:26:01.088Z,60.90
2017-09-10T12:28:28.997Z,60.90
2017-09-10T12:30:59.436Z,60.60
2017-09-10T12:33:27.794Z,60.60
2017-09-10T12:35:57.300Z,60.50
2017-09-10T12:38:25.782Z,59.60
2017-09-10T12:40:54.522Z,59.60
2017-09-10T12:43:22.126Z,59.60
2017-09-10T12:45:49.628Z,60.00
2017-09-10T12:48:17.464Z,57.80
2017-09-10T12:50:45.480Z,58.30
2017-09-10T12:53:12.981Z,58.90
2017-09-10T12:55:40.530Z,59.20
2017-09-10T12:58:08.024Z,59.30
2017-09-10T13:00:35.898Z,58.10
2017-09-10T13:03:03.579Z,58.60
2017-09-10T13:05:31.840Z,58.20
2017-09-10T13:07:59.339Z,58.10
2017-09-10T13:10:27.161Z,57.80
2017-09-10T13:12:54.684Z,57.70
2017-09-10T13:15:22.357Z,57.30
2017-09-10T13:17:49.896Z,56.60
2017-09-10T13:20:17.435Z,56.90
2017-09-10T13:22:45.346Z,57.50
2017-09-10T13:25:12.845Z,58.00
2017-09-10T13:27:40.385Z,57.50
2017-09-10T13:30:08.840Z,57.20
2017-09-10T13:32:36.455Z,57.20
2017-09-10T13:35:04.563Z,57.70
2017-09-10T13:37:32.409Z,58.00
2017-09-10T13:40:01.545Z,57.80
2017-09-10T13:42:31.384Z,57.90
2017-09-10T13:45:04.510Z,57.60
2017-09-10T13:47:36.050Z,58.00
2017-09-10T13:50:03.819Z,57.40
2017-09-10T13:52:31.354Z,57.70
2017-09-10T13:54:58.858Z,57.40
2017-09-10T13:57:26.394Z,57.50
2017-09-10T13:59:55.132Z,57.00
2017-09-10T14:02:22.707Z,57.10
2017-09-10T14:04:50.237Z,56.20
2017-09-10T14:07:18.508Z,55.20
2017-09-10T14:09:46.802Z,55.40
2017-09-10T14:12:15.072Z,55.70
2017-09-10T14:14:43.362Z,56.20
2017-09-10T14:17:11.088Z,56.20
2017-09-10T14:19:40.341Z,57.50
2017-09-10T14:22:07.927Z,56.90
2017-09-10T14:24:35.770Z,57.20
2017-09-10T14:27:03.585Z,57.40
2017-09-10T14:29:32.013Z,57.20
2017-09-10T14:31:59.517Z,57.10
2017-09-10T14:34:27.829Z,56.00
2017-09-10T14:36:55.389Z,56.00
2017-09-10T14:39:24.834Z,56.50
2017-09-10T14:41:52.332Z,56.60
2017-09-10T14:44:19.857Z,56.60
2017-09-10T14:46:47.393Z,56.00
2017-09-10T14:49:14.898Z,55.80
2017-09-10T14:51:42.393Z,55.20
2017-09-10T14:54:09.965Z,55.70
2017-09-10T14:56:37.477Z,55.90
2017-09-10T14:59:04.980Z,56.50
2017-09-10T15:01:32.508Z,56.40
2017-09-10T15:04:00.009Z,55.70
2017-09-10T15:06:27.554Z,55.60
2017-09-10T15:08:55.048Z,54.70
2017-09-10T15:11:23.325Z,53.40
2017-09-10T15:13:51.629Z,53.80
2017-09-10T15:16:19.121Z,53.80
2017-09-10T15:18:46.620Z,54.50
2017-09-10T15:21:14.136Z,54.40
2017-09-10T15:23:41.650Z,54.10
2017-09-10T15:26:14.374Z,53.40
2017-09-10T15:28:43.033Z,52.20
2017-09-10T15:31:10.923Z,52.20
2017-09-10T15:33:39.509Z,52.50
2017-09-10T15:36:07.802Z,52.70
2017-09-10T15:38:36.503Z,52.90
2017-09-10T15:41:05.860Z,54.10
2017-09-10T15:43:33.482Z,54.10
2017-09-10T15:46:02.617Z,54.20
2017-09-10T15:48:31.608Z,53.60
2017-09-10T15:51:04.640Z,54.30
2017-09-10T15:53:34.263Z,54.80
2017-09-10T15:56:02.472Z,54.30
2017-09-10T15:58:30.149Z,54.50
2017-09-10T16:00:57.644Z,55.50
2017-09-10T16:03:25.197Z,56.10
2017-09-10T16:05:54.160Z,55.40
2017-09-10T16:08:22.256Z,52.10
2017-09-10T16:10:49.785Z,51.90
2017-09-10T16:13:17.328Z,52.50
2017-09-10T16:15:45.812Z,52.50
2017-09-10T16:18:15.634Z,53.90
2017-09-10T16:20:53.263Z,54.70
2017-09-10T16:23:32.974Z,55.30
2017-09-10T16:26:07.574Z,55.30
2017-09-10T16:28:35.177Z,55.70
2017-09-10T16:31:08.601Z,56.30
2017-09-10T16:33:43.409Z,56.60
2017-09-10T16:36:14.998Z,57.20
2017-09-10T16:38:42.598Z,57.80
2017-09-10T16:41:10.861Z,57.80
2017-09-10T16:43:38.363Z,58.30
2017-09-10T16:46:05.913Z,58.10
2017-09-10T16:48:33.737Z,58.20
2017-09-10T16:51:01.233Z,58.30
2017-09-10T16:53:28.747Z,58.40
2017-09-10T16:55:57.338Z,58.60
2017-09-10T16:58:25.637Z,58.30
2017-09-10T17:00:53.140Z,58.70
2017-09-10T17:03:20.693Z,58.70
2017-09-10T17:05:48.192Z,58.90
2017-09-10T17:08:16.529Z,59.30
2017-09-10T17:10:44.059Z,59.20
2017-09-10T17:13:11.564Z,59.20
2017-09-10T17:15:39.077Z,59.60
2017-09-10T17:18:06.605Z,59.80
2017-09-10T17:20:34.101Z,59.80
2017-09-10T17:23:01.907Z,60.00
2017-09-10T17:25:30.188Z,60.50
2017-09-10T17:27:57.901Z,60.50
2017-09-10T17:30:25.563Z,60.50
2017-09-10T17:32:54.647Z,60.90
2017-09-10T17:35:22.313Z,60.90
2017-09-10T17:37:50.985Z,60.90
2017-09-10T17:40:18.559Z,61.20
2017-09-10T17:42:47.226Z,61.40
2017-09-10T17:45:15.389Z,61.70
2017-09-10T17:47:43.041Z,61.90
2017-09-10T17:50:11.039Z,62.20
2017-09-10T17:52:38.737Z,62.40
2017-09-10T17:55:06.369Z,62.50
2017-09-10T17:57:34.696Z,63.00
2017-09-10T18:00:05.921Z,63.00
2017-09-10T18:02:33.737Z,63.20
2017-09-10T18:05:01.473Z,63.40
2017-09-10T18:07:28.988Z,64.10
2017-09-10T18:09:57.281Z,63.70
2017-09-10T18:12:24.798Z,63.90
2017-09-10T18:14:53.057Z,64.30
2017-09-10T18:17:20.597Z,64.30
2017-09-10T18:19:48.102Z,64.50
2017-09-10T18:22:16.373Z,65.00
2017-09-10T18:24:44.657Z,64.90
2017-09-10T18:27:12.162Z,64.90
2017-09-10T18:29:40.450Z,64.90
2017-09-10T18:32:07.962Z,65.10
2017-09-10T18:34:35.463Z,64.60
2017-09-10T18:37:02.991Z,64.50
2017-09-10T18:39:30.493Z,64.30
2017-09-10T18:41:58.817Z,64.20
2017-09-10T18:44:26.443Z,64.20
2017-09-10T18:46:53.952Z,64.20
2017-09-10T18:49:21.453Z,64.20
2017-09-10T18:51:49.990Z,64.80
2017-09-10T18:54:17.481Z,64.20
2017-09-10T18:56:45.741Z,64.10
2017-09-10T19:02:04.391Z,63.80
2017-09-10T19:04:32.642Z,63.90
2017-09-10T19:07:00.131Z,64.50
2017-09-10T19:09:27.645Z,63.90
2017-09-10T19:11:55.143Z,63.70
2017-09-10T19:14:22.639Z,63.90
2017-09-10T19:16:50.928Z,64.20
2017-09-10T19:19:18.437Z,64.20
2017-09-10T19:21:45.930Z,64.20
2017-09-10T19:24:13.441Z,64.30
2017-09-10T19:26:40.931Z,64.50
2017-09-10T19:29:09.196Z,64.70
2017-09-10T19:31:37.564Z,64.60
2017-09-10T19:34:05.063Z,64.50
2017-09-10T19:36:32.561Z,64.80
2017-09-10T19:39:00.169Z,64.90
2017-09-10T19:41:27.715Z,65.00
2017-09-10T19:43:55.971Z,65.20
2017-09-10T19:46:23.487Z,65.20
2017-09-10T19:48:50.990Z,65.40
2017-09-10T19:51:19.259Z,65.50
2017-09-10T19:53:46.860Z,65.50
2017-09-10T19:56:14.356Z,65.60
2017-09-10T19:58:41.861Z,65.60
2017-09-10T20:01:09.363Z,65.80
2017-09-10T20:03:36.858Z,65.80
2017-09-10T20:06:04.372Z,65.90
2017-09-10T20:08:31.890Z,66.00
2017-09-10T20:10:59.379Z,66.20
2017-09-10T20:13:26.864Z,66.20
2017-09-10T20:15:54.382Z,66.20
2017-09-10T20:18:21.876Z,66.20
2017-09-10T20:20:49.368Z,66.30
2017-09-10T20:23:16.893Z,66.30
2017-09-10T20:25:44.376Z,66.50
2017-09-10T20:28:11.932Z,66.60
2017-09-10T20:30:39.448Z,66.70
2017-09-10T20:33:06.936Z,66.70
2017-09-10T20:41:19.129Z,66.70
2017-09-10T20:43:46.624Z,66.80
2017-09-10T20:46:14.941Z,66.90
2017-09-10T20:48:42.423Z,66.90
2017-09-10T20:51:09.952Z,67.00
2017-09-10T20:53:37.488Z,66.90
2017-09-10T20:56:05.825Z,66.90
2017-09-10T20:58:33.320Z,66.90
2017-09-10T21:01:01.576Z,66.70
2017-09-10T21:03:29.113Z,66.70
2017-09-10T21:05:56.608Z,66.80
2017-09-10T21:08:24.871Z,67.00
2017-09-10T21:10:53.160Z,67.00
2017-09-10T21:13:21.520Z,67.00
2017-09-10T21:15:49.775Z,67.00
2017-09-10T21:18:17.272Z,67.00
2017-09-10T21:20:44.806Z,67.10
2017-09-10T21:23:13.096Z,67.20
2017-09-10T21:25:41.355Z,67.10
2017-09-10T21:28:09.647Z,67.30
2017-09-10T21:30:37.150Z,67.30
2017-09-10T21:33:04.657Z,67.20
2017-09-10T21:35:32.177Z,67.20
2017-09-10T21:37:59.764Z,67.20
2017-09-10T21:40:27.276Z,67.30
2017-09-10T21:42:54.807Z,67.40
2017-09-10T21:45:22.342Z,67.30
2017-09-10T21:47:49.837Z,67.30
2017-09-10T21:50:17.336Z,67.30
2017-09-10T21:52:44.851Z,67.50
2017-09-10T21:55:12.340Z,67.60
2017-09-10T21:57:40.628Z,67.50
2017-09-10T22:00:08.888Z,67.50
2017-09-10T22:02:37.184Z,67.50
2017-09-10T22:05:04.713Z,67.50
2017-09-10T22:07:32.196Z,67.50
2017-09-10T22:09:59.725Z,67.40
2017-09-10T22:12:27.245Z,67.50
2017-09-10T22:14:54.736Z,67.50
2017-09-10T22:17:22.258Z,67.50
2017-09-10T22:19:49.757Z,67.50
2017-09-10T22:22:18.042Z,67.50
2017-09-10T22:24:46.315Z,68.00
2017-09-10T22:27:14.612Z,67.50
2017-09-10T22:29:42.102Z,67.50
2017-09-10T22:32:09.609Z,67.50
2017-09-10T22:34:37.904Z,67.50
2017-09-10T22:37:05.405Z,67.50
2017-09-10T22:39:32.896Z,67.50
2017-09-10T22:42:00.429Z,67.50
2017-09-10T22:44:27.964Z,67.40
2017-09-10T22:46:55.516Z,67.60
2017-09-10T22:49:23.012Z,67.60
2017-09-10T22:51:50.500Z,67.50
2017-09-10T22:54:18.025Z,67.50
2017-09-10T22:56:45.585Z,67.50
2017-09-10T22:59:13.117Z,67.30
2017-09-10T23:01:40.881Z,67.50
2017-09-10T23:04:08.395Z,67.50
2017-09-10T23:06:35.896Z,67.40
2017-09-10T23:09:03.450Z,67.40
2017-09-10T23:11:30.955Z,67.40
2017-09-10T23:13:58.460Z,67.30
2017-09-10T23:16:25.993Z,67.30
2017-09-10T23:18:53.492Z,67.20
2017-09-10T23:21:21.045Z,67.30
2017-09-10T23:23:48.576Z,67.20
2017-09-10T23:26:16.104Z,67.30
2017-09-10T23:28:43.604Z,67.20
2017-09-10T23:31:11.159Z,67.10
2017-09-10T23:33:38.659Z,67.20
2017-09-10T23:36:06.929Z,67.20
2017-09-10T23:38:34.469Z,67.20
2017-09-10T23:41:01.968Z,67.20
2017-09-10T23:43:29.463Z,67.20
2017-09-10T23:45:57.016Z,67.30
2017-09-10T23:48:24.516Z,67.30
2017-09-10T23:50:52.784Z,67.60
2017-09-10T23:53:21.085Z,67.50
2017-09-10T23:55:48.575Z,67.50
2017-09-10T23:58:16.114Z,67.40
